Angoon, Alaska
Current Conditions -  °F | °C
As of 4:56 PM on Wednesday 22 Oct 2014 (Local Time) from PAGN Reporting Station
Few Clouds Few Clouds  
Wind Chill: 47°   Ceiling: Unl
Heat Index: 47°   Visibility: 10mi
Dew Point: 42°   Wind: 3mph
Humidity: 83%   Direction: NA
Pressure: 29.41"   Gusts: NA
Location:  57.5°N, 134.59°W
Report Text: PAGN 230056Z AUTO VRB03KT 10SM FEW055 08/06 A2941 RMK AO2 TSNO T00830055 SLP961 $
Loading
Personal Weather Stations






























Interactive Weather Map
Tropical Storm Tracking
New forecast layout! Learn more

10-Day Weather Forecast

Advertisements
Track Severe Weather on mobile